createdAt,value
2022-10-28T00:00:32.565Z,39.32
2022-10-28T00:01:31.619Z,40.93
2022-10-28T00:02:31.624Z,44.31
2022-10-28T00:03:31.574Z,40.93
2022-10-28T00:04:31.541Z,40.12
2022-10-28T00:05:31.532Z,39.48
2022-10-28T00:06:31.521Z,40.44
2022-10-28T00:07:31.521Z,44.15
2022-10-28T00:08:32.534Z,45.12
2022-10-28T00:09:31.498Z,43.18
2022-10-28T00:10:31.492Z,45.60
2022-10-28T00:11:31.486Z,45.28
2022-10-28T00:12:31.477Z,48.02
2022-10-28T00:13:31.494Z,42.06
2022-10-28T00:14:31.461Z,39.16
2022-10-28T00:15:31.454Z,38.35
2022-10-28T00:16:31.446Z,43.18
2022-10-28T00:17:31.434Z,41.25
2022-10-28T00:18:31.460Z,40.61
2022-10-28T00:19:31.427Z,42.22
2022-10-28T00:20:31.416Z,43.34
2022-10-28T00:21:31.402Z,45.44
2022-10-28T00:22:31.397Z,46.25
2022-10-28T00:23:31.418Z,45.76
2022-10-28T00:24:31.382Z,40.28
2022-10-28T00:25:31.374Z,40.12
2022-10-28T00:26:31.380Z,51.72
2022-10-28T00:27:31.360Z,48.66
2022-10-28T00:28:31.387Z,49.95
2022-10-28T00:29:31.348Z,54.46
2022-10-28T00:31:32.332Z,54.62
2022-10-28T00:32:31.322Z,51.88
2022-10-28T00:33:31.315Z,43.34
2022-10-28T00:34:31.329Z,49.31
2022-10-28T00:35:31.296Z,55.91
2022-10-28T00:36:31.290Z,55.75
2022-10-28T00:37:31.279Z,49.63
2022-10-28T00:38:31.277Z,48.50
2022-10-28T00:39:31.292Z,42.54
2022-10-28T00:40:31.261Z,45.28
2022-10-28T00:41:31.253Z,46.57
2022-10-28T00:42:31.246Z,50.76
2022-10-28T00:43:31.241Z,48.82
2022-10-28T00:44:31.254Z,43.51
2022-10-28T00:45:32.235Z,41.57
2022-10-28T00:46:31.220Z,46.08
2022-10-28T00:47:31.211Z,43.02
2022-10-28T00:48:31.198Z,44.63
2022-10-28T00:49:31.217Z,42.06
2022-10-28T00:50:31.183Z,48.18
2022-10-28T00:51:31.178Z,51.40
2022-10-28T00:52:31.171Z,41.73
2022-10-28T00:53:31.158Z,53.66
2022-10-28T00:54:31.180Z,48.02
2022-10-28T00:55:31.150Z,53.01
2022-10-28T00:56:31.137Z,41.09
2022-10-28T00:57:31.127Z,45.12
2022-10-28T00:58:31.124Z,45.28
2022-10-28T00:59:31.145Z,41.57
2022-10-28T01:00:31.116Z,54.30
2022-10-28T01:01:31.203Z,48.02
2022-10-28T01:02:31.196Z,42.38
2022-10-28T01:03:31.092Z,41.25
2022-10-28T01:04:31.104Z,48.50
2022-10-28T01:05:31.072Z,51.72
2022-10-28T01:06:31.063Z,45.76
2022-10-28T01:07:31.063Z,41.09
2022-10-28T01:08:31.051Z,45.60
2022-10-28T01:09:31.069Z,41.57
2022-10-28T01:10:31.034Z,50.11
2022-10-28T01:11:31.030Z,50.27
2022-10-28T01:12:31.017Z,51.40
2022-10-28T01:13:31.007Z,46.25
2022-10-28T01:14:31.032Z,42.54
2022-10-28T01:15:30.994Z,42.54
2022-10-28T01:16:30.988Z,44.96
2022-10-28T01:17:30.973Z,50.11
2022-10-28T01:18:30.970Z,48.98
2022-10-28T01:19:30.986Z,51.88
2022-10-28T01:20:31.741Z,46.08
2022-10-28T01:21:30.944Z,49.31
2022-10-28T01:23:30.934Z,44.31
2022-10-28T01:24:30.951Z,43.99
2022-10-28T01:25:30.918Z,42.38
2022-10-28T01:26:30.911Z,48.98
2022-10-28T01:27:30.900Z,52.85
2022-10-28T01:28:30.891Z,45.28
2022-10-28T01:29:30.909Z,46.73
2022-10-28T01:30:30.879Z,40.28
2022-10-28T01:31:30.872Z,41.41
2022-10-28T01:32:30.855Z,45.44
2022-10-28T01:33:31.852Z,47.37
2022-10-28T01:34:30.871Z,44.15
2022-10-28T01:36:31.834Z,39.80
2022-10-28T01:37:30.824Z,41.09
2022-10-28T01:38:30.820Z,40.28
2022-10-28T01:39:30.836Z,40.93
2022-10-28T01:40:30.799Z,49.31
2022-10-28T01:41:30.789Z,48.34
2022-10-28T01:42:30.784Z,44.96
2022-10-28T01:43:30.778Z,44.47
2022-10-28T01:44:30.796Z,57.85
2022-10-28T01:45:30.763Z,53.01
2022-10-28T01:46:30.752Z,49.79
2022-10-28T01:47:30.739Z,49.31
2022-10-28T01:48:30.787Z,48.02
2022-10-28T01:49:30.757Z,41.89
2022-10-28T01:50:30.720Z,43.83
2022-10-28T01:51:30.709Z,40.93
2022-10-28T01:52:30.702Z,39.16
2022-10-28T01:53:30.693Z,39.48
2022-10-28T01:54:30.709Z,40.93
2022-10-28T01:55:30.677Z,46.41
2022-10-28T01:56:30.673Z,49.15
2022-10-28T01:57:30.663Z,48.66
2022-10-28T01:58:30.657Z,45.44
2022-10-28T01:59:30.679Z,48.34
2022-10-28T02:00:30.678Z,42.22
2022-10-28T02:01:30.764Z,43.02
2022-10-28T02:02:30.624Z,43.34
2022-10-28T02:03:30.616Z,50.27
2022-10-28T02:04:30.637Z,52.37
2022-10-28T02:05:30.604Z,54.46
2022-10-28T02:06:30.595Z,41.25
2022-10-28T02:07:30.586Z,40.28
2022-10-28T02:08:30.585Z,50.76
2022-10-28T02:09:30.711Z,43.18
2022-10-28T02:10:30.568Z,44.63
2022-10-28T02:11:30.558Z,49.63
2022-10-28T02:12:30.553Z,48.98
2022-10-28T02:13:30.552Z,49.63
2022-10-28T02:14:30.831Z,43.99
2022-10-28T02:15:30.535Z,38.83
2022-10-28T02:16:30.518Z,38.83
2022-10-28T02:17:30.508Z,45.12
2022-10-28T02:18:30.503Z,56.72
2022-10-28T02:19:30.499Z,50.27
2022-10-28T02:20:30.515Z,46.89
2022-10-28T02:21:30.479Z,45.44
2022-10-28T02:22:30.475Z,47.53
2022-10-28T02:23:30.466Z,49.31
2022-10-28T02:24:30.455Z,47.05
2022-10-28T02:25:30.484Z,47.70
2022-10-28T02:26:30.437Z,46.41
2022-10-28T02:27:31.432Z,43.99
2022-10-28T02:28:30.428Z,51.88
2022-10-28T02:29:30.419Z,47.21
2022-10-28T02:30:30.435Z,50.60
2022-10-28T02:31:30.406Z,41.89
2022-10-28T02:32:30.398Z,47.37
2022-10-28T02:33:30.391Z,38.03
2022-10-28T02:34:30.383Z,38.19
2022-10-28T02:35:30.398Z,53.50
2022-10-28T02:36:30.369Z,54.30
2022-10-28T02:37:30.358Z,43.18
2022-10-28T02:38:30.347Z,48.82
2022-10-28T02:39:30.342Z,45.12
2022-10-28T02:40:30.356Z,44.15
2022-10-28T02:41:30.324Z,44.79
2022-10-28T02:42:30.315Z,51.24
2022-10-28T02:43:30.312Z,54.62
2022-10-28T02:44:30.304Z,48.82
2022-10-28T02:45:30.313Z,53.01
2022-10-28T02:46:30.283Z,48.66
2022-10-28T02:47:30.272Z,46.25
2022-10-28T02:48:30.268Z,46.25
2022-10-28T02:49:30.256Z,44.63
2022-10-28T02:50:30.274Z,49.15
2022-10-28T02:51:30.368Z,50.60
2022-10-28T02:52:30.237Z,55.91
2022-10-28T02:53:30.228Z,50.92
2022-10-28T02:54:30.220Z,45.44
2022-10-28T02:55:30.233Z,50.11
2022-10-28T02:56:30.202Z,48.66
2022-10-28T02:57:30.193Z,48.18
2022-10-28T02:58:30.188Z,50.27
2022-10-28T02:59:30.170Z,51.08
2022-10-28T03:00:31.196Z,48.50
2022-10-28T03:01:30.265Z,49.63
2022-10-28T03:02:30.158Z,48.82
2022-10-28T03:03:30.147Z,49.15
2022-10-28T03:04:30.141Z,53.33
2022-10-28T03:05:30.158Z,53.98
2022-10-28T03:06:30.127Z,55.75
2022-10-28T03:07:30.117Z,48.82
2022-10-28T03:08:30.111Z,46.73
2022-10-28T03:09:30.102Z,48.66
2022-10-28T03:10:30.119Z,51.24
2022-10-28T03:11:30.085Z,56.24
2022-10-28T03:12:30.087Z,56.56
2022-10-28T03:13:30.067Z,55.11
2022-10-28T03:14:30.059Z,53.50
2022-10-28T03:15:30.084Z,52.85
2022-10-28T03:16:30.050Z,51.08
2022-10-28T03:17:30.039Z,48.02
2022-10-28T03:18:30.029Z,49.31
2022-10-28T03:19:30.020Z,57.69
2022-10-28T03:20:30.012Z,53.98
2022-10-28T03:21:30.031Z,50.76
2022-10-28T03:22:29.995Z,54.95
2022-10-28T03:23:29.987Z,58.01
2022-10-28T03:24:29.988Z,56.72
2022-10-28T03:25:29.973Z,56.88
2022-10-28T03:26:29.992Z,53.01
2022-10-28T03:27:29.958Z,53.50
2022-10-28T03:28:29.953Z,48.34
2022-10-28T03:29:29.953Z,46.41
2022-10-28T03:30:29.966Z,48.34
2022-10-28T03:31:29.934Z,50.11
2022-10-28T03:32:29.953Z,53.50
2022-10-28T03:33:29.918Z,53.33
2022-10-28T03:34:29.911Z,50.60
2022-10-28T03:35:29.931Z,61.39
2022-10-28T03:36:29.895Z,51.40
2022-10-28T03:37:29.886Z,51.40
2022-10-28T03:38:29.879Z,51.56
2022-10-28T03:39:29.870Z,60.75
2022-10-28T03:40:29.890Z,56.72
2022-10-28T03:41:29.856Z,51.88
2022-10-28T03:42:29.851Z,55.27
2022-10-28T03:43:29.842Z,56.40
2022-10-28T03:44:29.840Z,53.33
2022-10-28T03:46:33.568Z,48.98
2022-10-28T03:47:30.814Z,47.70
2022-10-28T03:48:29.808Z,59.46
2022-10-28T03:49:29.798Z,55.43
2022-10-28T03:50:29.794Z,54.62
2022-10-28T03:51:29.810Z,48.98
2022-10-28T03:52:29.771Z,47.37
2022-10-28T03:53:31.519Z,49.47
2022-10-28T03:54:30.758Z,47.05
2022-10-28T03:55:30.750Z,56.24
2022-10-28T03:56:29.765Z,58.01
2022-10-28T03:57:29.735Z,41.89
2022-10-28T03:58:29.778Z,54.95
2022-10-28T03:59:29.718Z,54.95
2022-10-28T04:00:29.711Z,50.43
2022-10-28T04:01:29.801Z,47.70
2022-10-28T04:02:29.756Z,47.86
2022-10-28T04:03:29.685Z,51.08
2022-10-28T04:04:30.742Z,52.85
2022-10-28T04:05:30.675Z,49.47
2022-10-28T04:06:29.691Z,56.56
2022-10-28T04:07:29.659Z,47.53
2022-10-28T04:08:29.638Z,48.82
2022-10-28T04:09:30.642Z,58.33
2022-10-28T04:10:29.633Z,53.50
2022-10-28T04:11:29.652Z,56.56
2022-10-28T04:12:29.621Z,53.01
2022-10-28T04:13:29.610Z,53.82
2022-10-28T04:14:29.600Z,53.17
2022-10-28T04:15:29.592Z,50.92
2022-10-28T04:16:29.611Z,52.05
2022-10-28T04:17:29.578Z,53.50
2022-10-28T04:18:29.566Z,56.24
2022-10-28T04:19:29.556Z,55.91
2022-10-28T04:20:29.553Z,53.33
2022-10-28T04:21:29.568Z,58.81
2022-10-28T04:22:29.536Z,56.56
2022-10-28T04:23:29.528Z,56.72
2022-10-28T04:24:29.523Z,55.91
2022-10-28T04:25:29.517Z,55.43
2022-10-28T04:26:29.530Z,53.01
2022-10-28T04:27:29.580Z,61.55
2022-10-28T04:28:29.492Z,56.07
2022-10-28T04:29:29.525Z,59.94
2022-10-28T04:30:29.483Z,58.49
2022-10-28T04:31:29.495Z,58.33
2022-10-28T04:32:29.462Z,57.20
2022-10-28T04:33:29.455Z,55.43
2022-10-28T04:34:29.442Z,56.07
2022-10-28T04:35:29.439Z,55.27
2022-10-28T04:36:29.470Z,56.72
2022-10-28T04:37:29.423Z,58.01
2022-10-28T04:38:29.422Z,59.30
2022-10-28T04:39:29.412Z,57.85
2022-10-28T04:40:29.402Z,57.69
2022-10-28T04:41:29.422Z,60.42
2022-10-28T04:42:29.388Z,61.39
2022-10-28T04:43:29.382Z,63.81
2022-10-28T04:44:29.372Z,58.81
2022-10-28T04:45:29.362Z,59.30
2022-10-28T04:46:29.351Z,56.07
2022-10-28T04:47:29.371Z,55.27
2022-10-28T04:48:29.337Z,56.56
2022-10-28T04:49:29.329Z,60.91
2022-10-28T04:50:29.323Z,59.62
2022-10-28T04:51:29.331Z,58.49
2022-10-28T04:52:30.307Z,58.33
2022-10-28T04:53:29.301Z,61.71
2022-10-28T04:54:29.301Z,59.30
2022-10-28T04:55:29.288Z,56.40
2022-10-28T04:56:29.302Z,55.91
2022-10-28T04:57:29.275Z,59.94
2022-10-28T04:58:29.262Z,58.01
2022-10-28T04:59:29.264Z,60.91
2022-10-28T05:00:29.247Z,57.52
2022-10-28T05:01:29.346Z,56.56
2022-10-28T05:02:29.276Z,59.14
2022-10-28T05:03:29.224Z,58.33
2022-10-28T05:04:29.215Z,58.49
2022-10-28T05:05:29.212Z,61.71
2022-10-28T05:06:29.226Z,62.20
2022-10-28T05:07:29.192Z,56.56
2022-10-28T05:08:29.189Z,55.91
2022-10-28T05:09:29.175Z,56.88
2022-10-28T05:10:29.165Z,60.26
2022-10-28T05:11:30.187Z,60.42
2022-10-28T05:12:29.156Z,59.30
2022-10-28T05:13:29.147Z,59.30
2022-10-28T05:14:29.138Z,58.81
2022-10-28T05:15:29.130Z,59.94
2022-10-28T05:16:29.149Z,55.11
2022-10-28T05:17:29.120Z,54.62
2022-10-28T05:18:29.109Z,57.69
2022-10-28T05:19:29.097Z,60.42
2022-10-28T05:20:29.095Z,58.81
2022-10-28T05:21:29.110Z,55.59
2022-10-28T05:22:29.082Z,56.40
2022-10-28T05:23:30.812Z,58.65
2022-10-28T05:24:30.065Z,55.27
2022-10-28T05:25:29.055Z,58.97
2022-10-28T05:26:29.069Z,53.66
2022-10-28T05:27:29.038Z,56.88
2022-10-28T05:28:29.030Z,57.85
2022-10-28T05:29:33.192Z,56.07
2022-10-28T05:30:30.014Z,57.69
2022-10-28T05:31:29.034Z,54.14
2022-10-28T05:32:29.002Z,58.81
2022-10-28T05:33:28.998Z,58.81
2022-10-28T05:34:28.984Z,60.10
2022-10-28T05:35:28.980Z,60.91
2022-10-28T05:36:28.995Z,56.07
2022-10-28T05:37:28.963Z,54.79
2022-10-28T05:38:28.956Z,57.85
2022-10-28T05:39:29.031Z,56.24
2022-10-28T05:40:28.940Z,56.40
2022-10-28T05:41:28.963Z,57.69
2022-10-28T05:42:28.922Z,58.01
2022-10-28T05:43:28.913Z,58.33
2022-10-28T05:44:28.907Z,60.75
2022-10-28T05:46:28.921Z,60.91
2022-10-28T05:47:28.881Z,60.75
2022-10-28T05:48:28.875Z,62.84
2022-10-28T05:49:28.866Z,57.69
2022-10-28T05:50:28.856Z,57.69
2022-10-28T05:51:28.843Z,57.85
2022-10-28T05:52:28.867Z,60.42
2022-10-28T05:53:28.835Z,61.55
2022-10-28T05:54:28.825Z,62.52
2022-10-28T05:55:28.819Z,56.40
2022-10-28T05:56:28.810Z,59.46
2022-10-28T05:57:28.825Z,56.07
2022-10-28T05:58:28.784Z,57.04
2022-10-28T05:59:29.783Z,56.24
2022-10-28T06:00:28.832Z,60.75
2022-10-28T06:01:28.797Z,58.17
2022-10-28T06:02:28.784Z,60.75
2022-10-28T06:03:31.185Z,58.81
2022-10-28T06:04:28.743Z,56.88
2022-10-28T06:05:28.739Z,56.24
2022-10-28T06:06:28.729Z,59.62
2022-10-28T06:07:28.747Z,55.43
2022-10-28T06:08:28.717Z,56.24
2022-10-28T06:09:28.705Z,57.04
2022-10-28T06:10:28.699Z,59.78
2022-10-28T06:11:27.154Z,60.91
2022-10-28T06:12:27.224Z,61.39
2022-10-28T06:13:27.139Z,59.62
2022-10-28T06:14:27.138Z,60.26
2022-10-28T06:15:27.126Z,57.85
2022-10-28T06:16:27.120Z,57.52
2022-10-28T06:17:27.137Z,55.59
2022-10-28T06:18:27.107Z,60.75
2022-10-28T06:19:27.102Z,59.14
2022-10-28T06:20:27.099Z,58.49
2022-10-28T06:21:27.085Z,61.87
2022-10-28T06:22:27.104Z,65.26
2022-10-28T06:23:27.077Z,64.45
2022-10-28T06:24:27.064Z,60.10
2022-10-28T06:25:27.059Z,59.14
2022-10-28T06:26:27.057Z,60.26
2022-10-28T06:27:27.068Z,59.30
2022-10-28T06:28:27.042Z,59.30
2022-10-28T06:29:27.039Z,58.33
2022-10-28T06:30:27.028Z,59.14
2022-10-28T06:31:27.054Z,59.94
2022-10-28T06:32:27.011Z,60.91
2022-10-28T06:33:27.002Z,59.30
2022-10-28T06:34:26.995Z,60.26
2022-10-28T06:35:26.989Z,56.56
2022-10-28T06:36:27.011Z,54.30
2022-10-28T06:37:26.973Z,54.14
2022-10-28T06:38:26.968Z,63.00
2022-10-28T06:40:27.955Z,58.33
2022-10-28T06:41:26.948Z,56.88
2022-10-28T06:42:26.969Z,57.85
2022-10-28T06:43:26.931Z,59.78
2022-10-28T06:44:26.941Z,64.13
2022-10-28T06:45:26.922Z,61.39
2022-10-28T06:46:26.930Z,60.10
2022-10-28T06:47:29.419Z,57.36
2022-10-28T06:48:28.411Z,57.52
2022-10-28T06:49:28.409Z,57.85
2022-10-28T06:50:28.396Z,57.04
2022-10-28T06:51:28.417Z,57.36
2022-10-28T06:52:28.386Z,55.11
2022-10-28T06:53:28.378Z,55.27
2022-10-28T06:54:28.372Z,54.30
2022-10-28T06:55:28.367Z,59.46
2022-10-28T06:56:28.378Z,57.85
2022-10-28T06:57:29.305Z,58.17
2022-10-28T06:58:29.335Z,61.23
2022-10-28T06:59:28.331Z,56.07
2022-10-28T07:00:28.391Z,57.04
2022-10-28T07:01:28.487Z,55.59
2022-10-28T07:02:28.385Z,56.72
2022-10-28T07:03:28.303Z,57.04
2022-10-28T07:04:28.300Z,58.97
2022-10-28T07:05:28.297Z,55.91
2022-10-28T07:06:28.312Z,55.27
2022-10-28T07:07:28.290Z,54.14
2022-10-28T07:08:28.278Z,54.79
2022-10-28T07:09:28.266Z,54.14
2022-10-28T07:10:28.253Z,55.59
2022-10-28T07:11:28.277Z,57.20
2022-10-28T07:12:28.239Z,55.59
2022-10-28T07:13:28.223Z,54.95
2022-10-28T07:14:29.229Z,53.01
2022-10-28T07:15:28.233Z,56.40
2022-10-28T07:16:29.241Z,52.37
2022-10-28T07:17:28.208Z,54.14
2022-10-28T07:18:28.200Z,51.72
2022-10-28T07:19:28.195Z,59.46
2022-10-28T07:20:28.217Z,58.81
2022-10-28T07:21:28.202Z,53.01
2022-10-28T07:22:28.167Z,53.50
2022-10-28T07:23:28.162Z,54.79
2022-10-28T07:25:29.150Z,52.53
2022-10-28T07:26:28.166Z,58.49
2022-10-28T07:27:28.134Z,52.85
2022-10-28T07:28:28.121Z,54.30
2022-10-28T07:29:28.115Z,58.33
2022-10-28T07:30:28.106Z,56.88
2022-10-28T07:31:28.128Z,56.72
2022-10-28T07:32:28.092Z,58.97
2022-10-28T07:33:28.087Z,54.46
2022-10-28T07:34:28.078Z,55.11
2022-10-28T07:35:28.072Z,51.72
2022-10-28T07:36:28.102Z,61.07
2022-10-28T07:37:28.060Z,50.60
2022-10-28T07:38:28.052Z,54.62
2022-10-28T07:39:28.092Z,55.59
2022-10-28T07:40:28.038Z,53.82
2022-10-28T07:41:28.061Z,57.36
2022-10-28T07:42:28.015Z,53.01
2022-10-28T07:43:28.011Z,55.43
2022-10-28T07:44:28.004Z,60.42
2022-10-28T07:45:27.993Z,56.24
2022-10-28T07:46:27.983Z,55.91
2022-10-28T07:47:28.006Z,57.36
2022-10-28T07:48:27.964Z,53.66
2022-10-28T07:49:27.962Z,55.75
2022-10-28T07:50:27.961Z,53.50
2022-10-28T07:51:27.949Z,57.20
2022-10-28T07:52:27.965Z,56.24
2022-10-28T07:53:28.895Z,53.98
2022-10-28T07:54:27.923Z,50.60
2022-10-28T07:55:27.911Z,54.14
2022-10-28T07:56:27.911Z,52.53
2022-10-28T07:57:27.931Z,53.82
2022-10-28T07:58:27.889Z,47.86
2022-10-28T07:59:27.884Z,49.95
2022-10-28T08:00:27.869Z,50.11
2022-10-28T08:01:27.924Z,49.15
2022-10-28T08:02:27.875Z,50.11
2022-10-28T08:03:31.342Z,53.17
2022-10-28T08:04:29.831Z,49.79
2022-10-28T08:05:27.822Z,49.79
2022-10-28T08:06:27.813Z,49.47
2022-10-28T08:07:27.830Z,52.85
2022-10-28T08:08:27.791Z,46.73
2022-10-28T08:09:27.785Z,55.11
2022-10-28T08:10:27.773Z,55.75
2022-10-28T08:11:27.763Z,50.76
2022-10-28T08:12:27.782Z,51.24
2022-10-28T08:13:27.746Z,53.66
2022-10-28T08:14:27.738Z,46.25
2022-10-28T08:15:28.480Z,45.92
2022-10-28T08:16:27.722Z,52.69
2022-10-28T08:17:27.733Z,56.56
2022-10-28T08:18:27.700Z,53.66
2022-10-28T08:19:27.696Z,50.60
2022-10-28T08:20:27.683Z,51.40
2022-10-28T08:21:27.679Z,54.46
2022-10-28T08:22:27.692Z,62.04
2022-10-28T08:23:27.731Z,60.59
2022-10-28T08:24:27.651Z,49.63
2022-10-28T08:25:27.641Z,53.17
2022-10-28T08:26:27.638Z,51.08
2022-10-28T08:27:27.658Z,55.59
2022-10-28T08:28:27.625Z,57.52
2022-10-28T08:29:29.864Z,53.98
2022-10-28T08:30:29.017Z,54.30
2022-10-28T08:31:27.604Z,55.43
2022-10-28T08:32:27.622Z,54.30
2022-10-28T08:33:27.586Z,55.75
2022-10-28T08:34:27.597Z,54.95
2022-10-28T08:35:27.572Z,50.76
2022-10-28T08:36:27.563Z,50.92
2022-10-28T08:37:27.615Z,51.88
2022-10-28T08:38:27.550Z,52.05
2022-10-28T08:39:27.542Z,48.66
2022-10-28T08:40:27.540Z,51.72
2022-10-28T08:41:27.526Z,53.98
2022-10-28T08:42:27.551Z,51.40
2022-10-28T08:43:40.248Z,52.21
2022-10-28T08:44:29.509Z,54.62
2022-10-28T08:45:27.500Z,52.69
2022-10-28T08:46:27.497Z,52.21
2022-10-28T08:47:27.520Z,53.66
2022-10-28T08:48:28.003Z,49.63
2022-10-28T08:49:27.473Z,48.98
2022-10-28T08:50:27.466Z,53.82
2022-10-28T08:51:27.460Z,52.69
2022-10-28T08:52:27.490Z,51.08
2022-10-28T08:53:27.446Z,55.11
2022-10-28T08:54:27.444Z,51.24
2022-10-28T08:55:27.435Z,49.15
2022-10-28T08:56:27.427Z,51.40
2022-10-28T08:57:27.451Z,51.88
2022-10-28T08:58:27.410Z,50.43
2022-10-28T08:59:27.405Z,50.60
2022-10-28T09:00:27.391Z,51.08
2022-10-28T09:01:27.560Z,49.63
2022-10-28T09:02:27.375Z,50.60
2022-10-28T09:03:27.398Z,49.79
2022-10-28T09:04:27.369Z,44.96
2022-10-28T09:05:27.361Z,47.86
2022-10-28T09:06:27.350Z,49.63
2022-10-28T09:07:27.341Z,52.53
2022-10-28T09:08:27.356Z,50.76
2022-10-28T09:09:27.326Z,50.27
2022-10-28T09:10:27.338Z,50.27
2022-10-28T09:11:27.553Z,54.30
2022-10-28T09:12:27.334Z,46.89
2022-10-28T09:13:27.364Z,46.57
2022-10-28T09:14:27.287Z,49.79
2022-10-28T09:15:27.316Z,47.70
2022-10-28T09:16:27.271Z,47.53
2022-10-28T09:17:27.266Z,48.50
2022-10-28T09:18:27.282Z,52.21
2022-10-28T09:19:27.249Z,53.17
2022-10-28T09:20:27.240Z,49.47
2022-10-28T09:21:27.241Z,53.66
2022-10-28T09:22:27.226Z,53.01
2022-10-28T09:23:27.262Z,52.85
2022-10-28T09:24:27.219Z,55.27
2022-10-28T09:25:27.196Z,50.92
2022-10-28T09:26:28.195Z,48.18
2022-10-28T09:27:27.191Z,53.01
2022-10-28T09:28:27.218Z,49.15
2022-10-28T09:29:27.178Z,50.11
2022-10-28T09:30:27.187Z,51.08
2022-10-28T09:31:27.168Z,53.01
2022-10-28T09:32:27.155Z,46.89
2022-10-28T09:33:27.184Z,48.34
2022-10-28T09:34:27.139Z,50.60
2022-10-28T09:35:27.141Z,51.24
2022-10-28T09:36:27.125Z,47.86
2022-10-28T09:37:27.134Z,54.95
2022-10-28T09:38:27.146Z,54.46
2022-10-28T09:39:28.009Z,52.85
2022-10-28T09:40:27.099Z,55.91
2022-10-28T09:41:27.090Z,47.86
2022-10-28T09:42:27.104Z,50.92
2022-10-28T09:43:27.107Z,50.11
2022-10-28T09:44:27.064Z,50.11
2022-10-28T09:45:28.060Z,49.47
2022-10-28T09:46:27.051Z,49.15
2022-10-28T09:47:27.043Z,54.62
2022-10-28T09:48:27.061Z,53.17
2022-10-28T09:49:27.031Z,52.37
2022-10-28T09:50:27.021Z,50.76
2022-10-28T09:51:27.019Z,55.11
2022-10-28T09:52:27.019Z,45.76
2022-10-28T09:53:27.032Z,43.18
2022-10-28T09:54:27.010Z,50.76
2022-10-28T09:55:26.991Z,56.24
2022-10-28T09:56:26.980Z,55.59
2022-10-28T09:57:26.975Z,49.79
2022-10-28T09:58:26.992Z,53.98
2022-10-28T09:59:26.956Z,54.62
2022-10-28T10:00:26.950Z,51.24
2022-10-28T10:01:27.010Z,52.85
2022-10-28T10:02:27.042Z,51.72
2022-10-28T10:03:26.952Z,50.43
2022-10-28T10:04:26.923Z,48.98
2022-10-28T10:05:26.914Z,55.27
2022-10-28T10:06:26.907Z,56.24
2022-10-28T10:07:26.899Z,51.56
2022-10-28T10:08:26.922Z,53.50
2022-10-28T10:09:26.887Z,51.88
2022-10-28T10:10:26.886Z,49.79
2022-10-28T10:11:26.876Z,50.27
2022-10-28T10:12:26.870Z,51.08
2022-10-28T10:13:26.886Z,49.63
2022-10-28T10:14:26.854Z,54.46
2022-10-28T10:15:26.849Z,52.69
2022-10-28T10:16:26.842Z,52.21
2022-10-28T10:17:26.830Z,54.14
2022-10-28T10:18:26.857Z,58.33
2022-10-28T10:19:26.820Z,51.56
2022-10-28T10:20:26.806Z,51.24
2022-10-28T10:21:26.804Z,52.05
2022-10-28T10:22:26.799Z,56.40
2022-10-28T10:23:26.852Z,51.88
2022-10-28T10:24:26.800Z,47.37
2022-10-28T10:25:27.775Z,52.53
2022-10-28T10:26:26.767Z,56.56
2022-10-28T10:27:26.768Z,54.46
2022-10-28T10:28:26.759Z,55.11
2022-10-28T10:29:26.773Z,51.40
2022-10-28T10:30:26.746Z,48.82
2022-10-28T10:31:26.731Z,52.05
2022-10-28T10:32:26.730Z,49.15
2022-10-28T10:33:26.742Z,54.14
2022-10-28T10:34:26.744Z,54.46
2022-10-28T10:35:26.703Z,51.40
2022-10-28T10:36:26.691Z,47.53
2022-10-28T10:37:26.701Z,47.70
2022-10-28T10:38:26.680Z,49.79
2022-10-28T10:39:26.720Z,51.72
2022-10-28T10:40:26.675Z,51.08
2022-10-28T10:41:26.659Z,53.17
2022-10-28T10:42:26.649Z,45.28
2022-10-28T10:43:26.639Z,48.66
2022-10-28T10:44:26.667Z,53.01
2022-10-28T10:45:26.627Z,51.24
2022-10-28T10:46:26.620Z,47.05
2022-10-28T10:47:26.618Z,50.60
2022-10-28T10:48:26.608Z,47.05
2022-10-28T10:49:26.626Z,51.88
2022-10-28T10:50:26.624Z,46.25
2022-10-28T10:51:26.591Z,49.31
2022-10-28T10:52:26.577Z,48.82
2022-10-28T10:53:26.596Z,48.66
2022-10-28T10:54:26.563Z,48.66
2022-10-28T10:55:26.562Z,51.56
2022-10-28T10:56:26.564Z,51.88
2022-10-28T10:57:26.541Z,50.92
2022-10-28T10:58:26.562Z,44.96
2022-10-28T10:59:26.523Z,42.22
2022-10-28T11:00:26.518Z,55.11
2022-10-28T11:01:26.601Z,51.72
2022-10-28T11:02:26.574Z,51.40
2022-10-28T11:03:26.520Z,48.82
2022-10-28T11:04:26.490Z,50.43
2022-10-28T11:05:29.284Z,52.53
2022-10-28T11:06:27.477Z,45.76
2022-10-28T11:07:26.464Z,48.66
2022-10-28T11:08:26.492Z,49.31
2022-10-28T11:09:26.448Z,46.89
2022-10-28T11:10:26.444Z,52.69
2022-10-28T11:11:26.436Z,49.47
2022-10-28T11:12:26.430Z,53.82
2022-10-28T11:13:26.461Z,53.17
2022-10-28T11:14:26.431Z,49.15
2022-10-28T11:15:26.404Z,52.21
2022-10-28T11:16:26.404Z,50.43
2022-10-28T11:17:26.442Z,55.91
2022-10-28T11:18:26.391Z,53.98
2022-10-28T11:19:26.405Z,46.08
2022-10-28T11:20:26.370Z,54.46
2022-10-28T11:21:26.378Z,44.31
2022-10-28T11:22:26.356Z,50.60
2022-10-28T11:23:26.372Z,49.79
2022-10-28T11:24:26.341Z,50.11
2022-10-28T11:25:26.329Z,51.56
2022-10-28T11:26:26.323Z,53.17
2022-10-28T11:27:26.314Z,49.79
2022-10-28T11:28:26.334Z,50.76
2022-10-28T11:29:26.299Z,47.37
2022-10-28T11:30:26.290Z,52.85
2022-10-28T11:31:27.288Z,48.98
2022-10-28T11:32:26.284Z,46.73
2022-10-28T11:33:30.805Z,47.70
2022-10-28T11:34:27.284Z,53.17
2022-10-28T11:35:26.279Z,54.95
2022-10-28T11:36:26.250Z,49.63
2022-10-28T11:37:26.241Z,49.15
2022-10-28T11:38:26.262Z,48.18
2022-10-28T11:39:26.226Z,48.34
2022-10-28T11:40:26.221Z,51.88
2022-10-28T11:41:26.215Z,53.17
2022-10-28T11:42:26.205Z,45.76
2022-10-28T11:43:26.232Z,48.98
2022-10-28T11:44:26.215Z,51.08
2022-10-28T11:45:26.190Z,52.37
2022-10-28T11:46:26.182Z,52.85
2022-10-28T11:47:26.171Z,54.95
2022-10-28T11:48:26.193Z,53.82
2022-10-28T11:49:26.154Z,51.08
2022-10-28T11:50:26.144Z,51.56
2022-10-28T11:51:26.139Z,56.88
2022-10-28T11:52:26.129Z,49.15
2022-10-28T11:53:26.121Z,53.17
2022-10-28T11:54:26.144Z,54.46
2022-10-28T11:55:26.113Z,52.21
2022-10-28T11:56:26.096Z,45.76
2022-10-28T11:57:26.094Z,52.69
2022-10-28T11:58:26.088Z,49.63
2022-10-28T11:59:26.125Z,46.57
2022-10-28T12:00:26.075Z,49.95
2022-10-28T12:01:26.264Z,50.11
2022-10-28T12:02:26.124Z,48.66
2022-10-28T12:03:26.098Z,48.34
2022-10-28T12:04:26.061Z,52.69
2022-10-28T12:05:26.033Z,51.56
2022-10-28T12:06:26.021Z,49.63
2022-10-28T12:07:26.004Z,51.88
2022-10-28T12:08:27.004Z,51.40
2022-10-28T12:09:26.016Z,52.37
2022-10-28T12:10:27.012Z,52.05
2022-10-28T12:11:25.986Z,46.57
2022-10-28T12:12:25.981Z,54.30
2022-10-28T12:13:25.996Z,51.88
2022-10-28T12:14:25.990Z,47.70
2022-10-28T12:15:25.955Z,52.21
2022-10-28T12:16:25.951Z,49.15
2022-10-28T12:17:25.946Z,49.79
2022-10-28T12:18:25.936Z,52.21
2022-10-28T12:19:25.951Z,51.40
2022-10-28T12:20:25.917Z,52.21
2022-10-28T12:21:26.032Z,51.24
2022-10-28T12:22:25.900Z,49.47
2022-10-28T12:23:25.895Z,51.08
2022-10-28T12:24:25.971Z,48.50
2022-10-28T12:25:25.884Z,54.30
2022-10-28T12:26:25.881Z,55.43
2022-10-28T12:27:25.872Z,49.31
2022-10-28T12:28:25.865Z,48.82
2022-10-28T12:29:25.882Z,50.76
2022-10-28T12:30:25.843Z,52.53
2022-10-28T12:31:25.840Z,54.62
2022-10-28T12:32:25.829Z,47.53
2022-10-28T12:33:25.826Z,57.52
2022-10-28T12:34:25.857Z,43.02
2022-10-28T12:35:25.809Z,44.79
2022-10-28T12:36:25.800Z,54.46
2022-10-28T12:37:25.796Z,55.11
2022-10-28T12:38:25.790Z,54.95
2022-10-28T12:39:25.861Z,55.75
2022-10-28T12:40:25.833Z,50.76
2022-10-28T12:41:25.767Z,49.63
2022-10-28T12:42:25.770Z,51.08
2022-10-28T12:43:25.832Z,48.82
2022-10-28T12:44:26.283Z,55.75
2022-10-28T12:45:25.735Z,56.88
2022-10-28T12:46:25.725Z,49.47
2022-10-28T12:47:25.719Z,55.43
2022-10-28T12:48:25.719Z,48.82
2022-10-28T12:49:25.731Z,51.40
2022-10-28T12:50:25.698Z,55.75
2022-10-28T12:51:25.690Z,52.53
2022-10-28T12:52:25.680Z,52.37
2022-10-28T12:53:25.675Z,52.05
2022-10-28T12:54:25.692Z,48.50
2022-10-28T12:55:25.661Z,48.98
2022-10-28T12:56:25.701Z,50.76
2022-10-28T12:57:25.643Z,55.43
2022-10-28T12:58:25.635Z,53.50
2022-10-28T12:59:25.654Z,50.60